sensor_id;sensor_type;location;lat;lon;timestamp;pressure;altitude;pressure_sealevel;temperature;humidity
56671;BME280;42545;50.054;8.306;2023-06-22T00:00:09;100001.75;;;22.78;68.82
56671;BME280;42545;50.054;8.306;2023-06-22T00:02:37;100004.53;;;22.75;68.94
56671;BME280;42545;50.054;8.306;2023-06-22T00:05:07;100005.59;;;22.71;69.14
56671;BME280;42545;50.054;8.306;2023-06-22T00:07:34;100009.31;;;22.67;69.34
56671;BME280;42545;50.054;8.306;2023-06-22T00:10:01;100023.78;;;22.63;69.50
56671;BME280;42545;50.054;8.306;2023-06-22T00:12:27;100027.56;;;22.57;69.78
56671;BME280;42545;50.054;8.306;2023-06-22T00:14:54;100035.63;;;22.57;69.79
56671;BME280;42545;50.054;8.306;2023-06-22T00:17:21;100047.31;;;22.56;69.84
56671;BME280;42545;50.054;8.306;2023-06-22T00:19:47;100060.81;;;22.55;70.19
56671;BME280;42545;50.054;8.306;2023-06-22T00:22:19;100063.69;;;22.49;70.76
56671;BME280;42545;50.054;8.306;2023-06-22T00:24:53;100059.38;;;22.43;70.82
56671;BME280;42545;50.054;8.306;2023-06-22T00:27:19;100060.44;;;22.39;71.18
56671;BME280;42545;50.054;8.306;2023-06-22T00:29:46;100077.59;;;22.35;71.42
56671;BME280;42545;50.054;8.306;2023-06-22T00:32:13;100064.25;;;22.32;71.89
56671;BME280;42545;50.054;8.306;2023-06-22T00:34:39;100060.81;;;22.26;71.60
56671;BME280;42545;50.054;8.306;2023-06-22T00:37:06;100063.59;;;22.23;71.77
56671;BME280;42545;50.054;8.306;2023-06-22T00:39:34;100069.00;;;22.22;71.91
56671;BME280;42545;50.054;8.306;2023-06-22T00:42:01;100076.22;;;22.20;72.23
56671;BME280;42545;50.054;8.306;2023-06-22T00:44:27;100080.72;;;22.19;72.38
56671;BME280;42545;50.054;8.306;2023-06-22T00:46:54;100088.84;;;22.18;72.91
56671;BME280;42545;50.054;8.306;2023-06-22T00:49:21;100097.88;;;22.15;73.36
56671;BME280;42545;50.054;8.306;2023-06-22T00:51:48;100120.38;;;22.11;73.56
56671;BME280;42545;50.054;8.306;2023-06-22T00:54:14;100134.00;;;22.05;74.49
56671;BME280;42545;50.054;8.306;2023-06-22T00:56:43;100140.53;;;21.96;75.42
56671;BME280;42545;50.054;8.306;2023-06-22T00:59:11;100155.97;;;21.88;76.62
56671;BME280;42545;50.054;8.306;2023-06-22T01:01:38;100175.00;;;21.80;78.35
56671;BME280;42545;50.054;8.306;2023-06-22T01:04:06;100188.66;;;21.73;79.89
56671;BME280;42545;50.054;8.306;2023-06-22T01:06:37;100186.19;;;21.65;81.15
56671;BME280;42545;50.054;8.306;2023-06-22T01:09:09;100180.97;;;21.59;82.44
56671;BME280;42545;50.054;8.306;2023-06-22T01:11:45;100129.28;;;21.50;84.10
56671;BME280;42545;50.054;8.306;2023-06-22T01:14:20;100063.47;;;21.36;85.09
56671;BME280;42545;50.054;8.306;2023-06-22T01:16:50;100035.16;;;21.24;85.78
56671;BME280;42545;50.054;8.306;2023-06-22T01:19:35;100038.00;;;21.18;87.72
56671;BME280;42545;50.054;8.306;2023-06-22T01:22:04;100010.53;;;21.08;88.49
56671;BME280;42545;50.054;8.306;2023-06-22T01:24:48;99999.19;;;20.98;88.96
56671;BME280;42545;50.054;8.306;2023-06-22T01:27:32;99985.19;;;20.87;90.30
56671;BME280;42545;50.054;8.306;2023-06-22T01:30:02;99989.00;;;20.78;91.14
56671;BME280;42545;50.054;8.306;2023-06-22T01:32:31;100007.94;;;20.72;92.31
56671;BME280;42545;50.054;8.306;2023-06-22T01:35:01;100023.09;;;20.73;93.49
56671;BME280;42545;50.054;8.306;2023-06-22T01:37:28;100035.63;;;20.72;94.51
56671;BME280;42545;50.054;8.306;2023-06-22T01:39:58;100034.78;;;20.70;95.18
56671;BME280;42545;50.054;8.306;2023-06-22T01:42:25;100054.47;;;20.69;95.74
56671;BME280;42545;50.054;8.306;2023-06-22T01:44:53;100065.34;;;20.63;95.76
56671;BME280;42545;50.054;8.306;2023-06-22T01:47:22;100076.09;;;20.60;96.45
56671;BME280;42545;50.054;8.306;2023-06-22T01:49:49;100062.78;;;20.57;97.63
56671;BME280;42545;50.054;8.306;2023-06-22T01:52:17;100035.28;;;20.49;97.59
56671;BME280;42545;50.054;8.306;2023-06-22T01:54:44;100021.09;;;20.45;98.46
56671;BME280;42545;50.054;8.306;2023-06-22T01:57:11;100006.03;;;20.40;99.04
56671;BME280;42545;50.054;8.306;2023-06-22T01:59:41;99996.28;;;20.37;99.88
56671;BME280;42545;50.054;8.306;2023-06-22T02:02:14;100017.78;;;20.34;100.00
56671;BME280;42545;50.054;8.306;2023-06-22T02:04:46;100033.91;;;20.32;100.00
56671;BME280;42545;50.054;8.306;2023-06-22T02:07:17;100008.19;;;20.24;100.00
56671;BME280;42545;50.054;8.306;2023-06-22T02:09:44;100002.75;;;20.28;100.00
56671;BME280;42545;50.054;8.306;2023-06-22T02:12:12;100000.13;;;20.25;100.00
56671;BME280;42545;50.054;8.306;2023-06-22T02:14:40;99995.69;;;20.24;100.00
56671;BME280;42545;50.054;8.306;2023-06-22T02:17:08;100004.72;;;20.20;100.00
56671;BME280;42545;50.054;8.306;2023-06-22T02:19:36;100004.81;;;20.17;100.00
56671;BME280;42545;50.054;8.306;2023-06-22T02:22:04;100008.34;;;20.17;100.00
56671;BME280;42545;50.054;8.306;2023-06-22T02:24:32;100009.19;;;20.20;100.00
56671;BME280;42545;50.054;8.306;2023-06-22T02:26:59;100016.25;;;20.24;100.00
56671;BME280;42545;50.054;8.306;2023-06-22T02:29:26;100022.44;;;20.26;100.00
56671;BME280;42545;50.054;8.306;2023-06-22T02:31:53;100027.81;;;20.24;100.00
56671;BME280;42545;50.054;8.306;2023-06-22T02:34:20;100043.19;;;20.17;100.00
56671;BME280;42545;50.054;8.306;2023-06-22T02:36:47;100049.59;;;20.10;100.00
56671;BME280;42545;50.054;8.306;2023-06-22T02:39:20;100017.50;;;20.09;100.00
56671;BME280;42545;50.054;8.306;2023-06-22T02:41:49;99989.84;;;20.08;100.00
56671;BME280;42545;50.054;8.306;2023-06-22T02:44:16;99975.53;;;20.08;100.00
56671;BME280;42545;50.054;8.306;2023-06-22T02:46:43;99977.25;;;20.12;100.00
56671;BME280;42545;50.054;8.306;2023-06-22T02:49:09;99978.09;;;20.14;100.00
56671;BME280;42545;50.054;8.306;2023-06-22T02:51:38;99974.47;;;20.15;100.00
56671;BME280;42545;50.054;8.306;2023-06-22T02:54:05;99969.97;;;20.17;100.00
56671;BME280;42545;50.054;8.306;2023-06-22T02:56:33;99977.09;;;20.18;100.00
56671;BME280;42545;50.054;8.306;2023-06-22T02:59:01;99987.81;;;20.18;100.00
56671;BME280;42545;50.054;8.306;2023-06-22T03:01:28;99986.91;;;20.19;100.00
56671;BME280;42545;50.054;8.306;2023-06-22T03:04:03;99978.81;;;20.21;100.00
56671;BME280;42545;50.054;8.306;2023-06-22T03:06:29;99968.16;;;20.19;100.00
56671;BME280;42545;50.054;8.306;2023-06-22T03:08:59;99958.31;;;20.20;100.00
56671;BME280;42545;50.054;8.306;2023-06-22T03:11:27;99952.06;;;20.19;100.00
56671;BME280;42545;50.054;8.306;2023-06-22T03:13:55;99940.53;;;20.17;100.00
56671;BME280;42545;50.054;8.306;2023-06-22T03:16:22;99944.94;;;20.18;100.00
56671;BME280;42545;50.054;8.306;2023-06-22T03:18:49;99944.94;;;20.18;100.00
56671;BME280;42545;50.054;8.306;2023-06-22T03:21:16;99947.59;;;20.20;100.00
56671;BME280;42545;50.054;8.306;2023-06-22T03:23:43;99959.16;;;20.20;100.00
56671;BME280;42545;50.054;8.306;2023-06-22T03:26:11;99966.34;;;20.20;100.00
56671;BME280;42545;50.054;8.306;2023-06-22T03:28:40;99958.38;;;20.16;100.00
56671;BME280;42545;50.054;8.306;2023-06-22T03:31:10;99952.09;;;20.17;100.00
56671;BME280;42545;50.054;8.306;2023-06-22T03:33:37;99951.22;;;20.17;100.00
56671;BME280;42545;50.054;8.306;2023-06-22T03:36:03;99944.94;;;20.18;100.00
56671;BME280;42545;50.054;8.306;2023-06-22T03:38:30;99943.19;;;20.17;100.00
56671;BME280;42545;50.054;8.306;2023-06-22T03:40:57;99938.69;;;20.19;100.00
56671;BME280;42545;50.054;8.306;2023-06-22T03:43:24;99936.91;;;20.18;100.00
56671;BME280;42545;50.054;8.306;2023-06-22T03:45:52;99935.88;;;20.24;100.00
56671;BME280;42545;50.054;8.306;2023-06-22T03:48:21;99942.06;;;20.26;100.00
56671;BME280;42545;50.054;8.306;2023-06-22T03:50:49;99952.75;;;20.27;100.00
56671;BME280;42545;50.054;8.306;2023-06-22T03:53:17;99952.75;;;20.27;100.00
56671;BME280;42545;50.054;8.306;2023-06-22T03:55:48;99950.09;;;20.26;100.00
56671;BME280;42545;50.054;8.306;2023-06-22T03:58:15;99949.16;;;20.28;100.00
56671;BME280;42545;50.054;8.306;2023-06-22T04:00:45;99948.22;;;20.29;100.00
56671;BME280;42545;50.054;8.306;2023-06-22T04:03:12;99955.38;;;20.29;100.00
56671;BME280;42545;50.054;8.306;2023-06-22T04:05:41;99965.09;;;20.33;100.00
56671;BME280;42545;50.054;8.306;2023-06-22T04:08:08;99963.31;;;20.33;100.00
56671;BME280;42545;50.054;8.306;2023-06-22T04:10:35;99954.38;;;20.33;100.00
56671;BME280;42545;50.054;8.306;2023-06-22T04:13:02;99961.56;;;20.32;100.00
56671;BME280;42545;50.054;8.306;2023-06-22T04:15:28;99964.19;;;20.34;100.00
56671;BME280;42545;50.054;8.306;2023-06-22T04:17:55;99964.19;;;20.34;100.00
56671;BME280;42545;50.054;8.306;2023-06-22T04:20:22;99957.97;;;20.33;100.00
56671;BME280;42545;50.054;8.306;2023-06-22T04:22:54;99963.25;;;20.35;100.00
56671;BME280;42545;50.054;8.306;2023-06-22T04:25:22;99963.38;;;20.32;99.85
56671;BME280;42545;50.054;8.306;2023-06-22T04:27:49;99969.53;;;20.35;99.68
56671;BME280;42545;50.054;8.306;2023-06-22T04:30:16;99961.44;;;20.37;99.35
56671;BME280;42545;50.054;8.306;2023-06-22T04:32:43;99971.22;;;20.38;99.09
56671;BME280;42545;50.054;8.306;2023-06-22T04:35:10;99978.38;;;20.39;98.56
56671;BME280;42545;50.054;8.306;2023-06-22T04:37:37;99972.09;;;20.39;98.27
56671;BME280;42545;50.054;8.306;2023-06-22T04:40:07;99981.91;;;20.40;98.03
56671;BME280;42545;50.054;8.306;2023-06-22T04:42:34;99980.03;;;20.43;98.34
56671;BME280;42545;50.054;8.306;2023-06-22T04:45:02;99968.38;;;20.44;98.30
56671;BME280;42545;50.054;8.306;2023-06-22T04:47:30;99970.97;;;20.49;98.30
56671;BME280;42545;50.054;8.306;2023-06-22T04:49:59;99961.91;;;20.53;98.24
56671;BME280;42545;50.054;8.306;2023-06-22T04:52:31;99970.72;;;20.58;98.08
56671;BME280;42545;50.054;8.306;2023-06-22T04:54:57;99964.41;;;20.61;97.91
56671;BME280;42545;50.054;8.306;2023-06-22T04:57:27;99975.91;;;20.66;97.60
56671;BME280;42545;50.054;8.306;2023-06-22T04:59:57;99969.69;;;20.65;97.29
56671;BME280;42545;50.054;8.306;2023-06-22T05:02:26;99963.34;;;20.68;96.19
56671;BME280;42545;50.054;8.306;2023-06-22T05:04:58;99966.09;;;20.66;96.14
56671;BME280;42545;50.054;8.306;2023-06-22T05:07:26;99967.06;;;20.62;96.25
56671;BME280;42545;50.054;8.306;2023-06-22T05:09:52;99959.16;;;20.56;96.32
56671;BME280;42545;50.054;8.306;2023-06-22T05:12:19;99964.59;;;20.53;96.39
56671;BME280;42545;50.054;8.306;2023-06-22T05:14:48;99971.63;;;20.57;96.64
56671;BME280;42545;50.054;8.306;2023-06-22T05:17:14;99968.06;;;20.57;96.49
56671;BME280;42545;50.054;8.306;2023-06-22T05:19:44;99961.84;;;20.56;95.66
56671;BME280;42545;50.054;8.306;2023-06-22T05:22:14;99947.50;;;20.57;95.57
56671;BME280;42545;50.054;8.306;2023-06-22T05:24:41;99958.16;;;20.62;95.12
56671;BME280;42545;50.054;8.306;2023-06-22T05:27:08;99960.84;;;20.62;94.51
56671;BME280;42545;50.054;8.306;2023-06-22T05:29:36;99953.66;;;20.62;93.99
56671;BME280;42545;50.054;8.306;2023-06-22T05:32:04;99945.47;;;20.68;93.74
56671;BME280;42545;50.054;8.306;2023-06-22T05:34:31;99944.44;;;20.74;93.62
56671;BME280;42545;50.054;8.306;2023-06-22T05:36:59;99947.75;;;20.82;93.19
56671;BME280;42545;50.054;8.306;2023-06-22T05:39:28;99949.31;;;20.91;92.31
56671;BME280;42545;50.054;8.306;2023-06-22T05:41:55;99943.78;;;20.97;92.17
56671;BME280;42545;50.054;8.306;2023-06-22T05:44:22;99940.00;;;21.04;91.60
56671;BME280;42545;50.054;8.306;2023-06-22T05:46:50;99945.00;;;21.17;91.20
56671;BME280;42545;50.054;8.306;2023-06-22T05:49:18;99947.44;;;21.26;90.88
56671;BME280;42545;50.054;8.306;2023-06-22T05:51:47;99942.78;;;21.33;90.29
56671;BME280;42545;50.054;8.306;2023-06-22T05:54:13;99937.94;;;21.44;90.09
56671;BME280;42545;50.054;8.306;2023-06-22T05:56:43;99941.38;;;21.50;89.67
56671;BME280;42545;50.054;8.306;2023-06-22T05:59:10;99950.84;;;21.62;89.39
56671;BME280;42545;50.054;8.306;2023-06-22T06:01:37;99939.94;;;21.68;88.88
56671;BME280;42545;50.054;8.306;2023-06-22T06:04:05;99943.13;;;21.81;87.88
56671;BME280;42545;50.054;8.306;2023-06-22T06:06:34;99942.69;;;21.94;87.91
56671;BME280;42545;50.054;8.306;2023-06-22T06:09:02;99943.31;;;22.03;86.98
56671;BME280;42545;50.054;8.306;2023-06-22T06:11:29;99937.72;;;22.10;86.35
56671;BME280;42545;50.054;8.306;2023-06-22T06:13:55;99943.56;;;22.22;86.35
56671;BME280;42545;50.054;8.306;2023-06-22T06:16:22;99934.44;;;22.28;85.62
56671;BME280;42545;50.054;8.306;2023-06-22T06:18:49;99945.69;;;22.39;84.80
56671;BME280;42545;50.054;8.306;2023-06-22T06:21:16;99942.91;;;22.42;84.56
56671;BME280;42545;50.054;8.306;2023-06-22T06:23:46;99948.75;;;22.55;84.04
56671;BME280;42545;50.054;8.306;2023-06-22T06:26:14;99942.19;;;22.64;83.63
56671;BME280;42545;50.054;8.306;2023-06-22T06:28:43;99932.06;;;22.71;83.45
56671;BME280;42545;50.054;8.306;2023-06-22T06:31:11;99940.81;;;22.77;82.82
56671;BME280;42545;50.054;8.306;2023-06-22T06:33:42;99944.03;;;22.87;82.66
56671;BME280;42545;50.054;8.306;2023-06-22T06:36:08;99935.66;;;22.96;82.76
56671;BME280;42545;50.054;8.306;2023-06-22T06:38:35;99927.44;;;22.99;82.14
56671;BME280;42545;50.054;8.306;2023-06-22T06:41:03;99931.69;;;23.07;81.58
56671;BME280;42545;50.054;8.306;2023-06-22T06:43:30;99916.38;;;23.09;81.76
56671;BME280;42545;50.054;8.306;2023-06-22T06:45:57;99918.13;;;23.10;81.28
56671;BME280;42545;50.054;8.306;2023-06-22T06:48:23;99907.28;;;23.13;81.11
56671;BME280;42545;50.054;8.306;2023-06-22T06:50:50;99918.56;;;23.22;80.64
56671;BME280;42545;50.054;8.306;2023-06-22T06:53:17;99921.06;;;23.27;80.43
56671;BME280;42545;50.054;8.306;2023-06-22T06:55:45;99921.75;;;23.32;79.94
56671;BME280;42545;50.054;8.306;2023-06-22T06:58:13;99919.97;;;23.33;79.37
56671;BME280;42545;50.054;8.306;2023-06-22T07:00:40;99928.31;;;23.49;79.39
56671;BME280;42545;50.054;8.306;2023-06-22T07:03:06;99927.88;;;23.59;78.88
56671;BME280;42545;50.054;8.306;2023-06-22T07:05:33;99920.41;;;23.68;78.52
56671;BME280;42545;50.054;8.306;2023-06-22T07:08:00;99920.94;;;23.76;78.37
56671;BME280;42545;50.054;8.306;2023-06-22T07:10:27;99924.19;;;23.86;77.32
56671;BME280;42545;50.054;8.306;2023-06-22T07:12:56;99915.97;;;23.89;76.62
56671;BME280;42545;50.054;8.306;2023-06-22T07:15:25;99921.03;;;23.96;76.22
56671;BME280;42545;50.054;8.306;2023-06-22T07:17:51;99914.53;;;24.02;76.02
56671;BME280;42545;50.054;8.306;2023-06-22T07:20:18;99917.84;;;24.09;75.69
56671;BME280;42545;50.054;8.306;2023-06-22T07:22:45;99914.72;;;24.20;74.99
56671;BME280;42545;50.054;8.306;2023-06-22T07:25:12;99906.09;;;24.32;74.53
56671;BME280;42545;50.054;8.306;2023-06-22T07:27:44;99904.84;;;24.41;74.23
56671;BME280;42545;50.054;8.306;2023-06-22T07:30:12;99914.31;;;24.49;73.70
56671;BME280;42545;50.054;8.306;2023-06-22T07:32:40;99914.81;;;24.61;73.43
56671;BME280;42545;50.054;8.306;2023-06-22T07:35:08;99905.34;;;24.71;72.87
56671;BME280;42545;50.054;8.306;2023-06-22T07:37:36;99900.63;;;24.76;71.59
56671;BME280;42545;50.054;8.306;2023-06-22T07:40:03;99903.19;;;24.79;71.36
56671;BME280;42545;50.054;8.306;2023-06-22T07:42:31;99895.53;;;24.89;71.19
56671;BME280;42545;50.054;8.306;2023-06-22T07:44:59;99878.19;;;24.94;70.63
56671;BME280;42545;50.054;8.306;2023-06-22T07:47:25;99895.50;;;25.09;70.26
56671;BME280;42545;50.054;8.306;2023-06-22T07:49:55;99900.53;;;25.17;69.86
56671;BME280;42545;50.054;8.306;2023-06-22T07:52:23;99892.13;;;25.25;69.87
56671;BME280;42545;50.054;8.306;2023-06-22T07:54:51;99887.28;;;25.31;69.11
56671;BME280;42545;50.054;8.306;2023-06-22T07:57:18;99883.16;;;25.43;68.64
56671;BME280;42545;50.054;8.306;2023-06-22T07:59:45;99889.03;;;25.51;68.43
56671;BME280;42545;50.054;8.306;2023-06-22T08:02:12;99885.34;;;25.54;67.80
56671;BME280;42545;50.054;8.306;2023-06-22T08:04:38;99880.81;;;25.55;68.13
56671;BME280;42545;50.054;8.306;2023-06-22T08:07:07;99891.97;;;25.66;67.79
56671;BME280;42545;50.054;8.306;2023-06-22T08:09:34;99886.34;;;25.70;67.66
56671;BME280;42545;50.054;8.306;2023-06-22T08:12:01;99879.03;;;25.73;67.15
56671;BME280;42545;50.054;8.306;2023-06-22T08:14:29;99871.88;;;25.71;66.48
56671;BME280;42545;50.054;8.306;2023-06-22T08:16:56;99883.00;;;25.83;66.93
56671;BME280;42545;50.054;8.306;2023-06-22T08:19:23;99858.69;;;25.83;67.09
56671;BME280;42545;50.054;8.306;2023-06-22T08:21:49;99869.84;;;25.96;66.97
56671;BME280;42545;50.054;8.306;2023-06-22T08:24:18;99874.06;;;26.01;66.72
56671;BME280;42545;50.054;8.306;2023-06-22T08:26:44;99862.13;;;26.05;66.75
56671;BME280;42545;50.054;8.306;2023-06-22T08:29:12;99858.38;;;26.08;66.34
56671;BME280;42545;50.054;8.306;2023-06-22T08:31:40;99854.59;;;26.12;66.15
56671;BME280;42545;50.054;8.306;2023-06-22T08:34:06;99850.69;;;26.18;66.44
56671;BME280;42545;50.054;8.306;2023-06-22T08:36:33;99850.44;;;26.22;66.12
56671;BME280;42545;50.054;8.306;2023-06-22T08:39:03;99855.69;;;26.25;65.87
56671;BME280;42545;50.054;8.306;2023-06-22T08:41:31;99858.31;;;26.27;65.76
56671;BME280;42545;50.054;8.306;2023-06-22T08:43:58;99854.56;;;26.30;66.15
56671;BME280;42545;50.054;8.306;2023-06-22T08:46:24;99839.91;;;26.34;66.03
56671;BME280;42545;50.054;8.306;2023-06-22T08:48:55;99830.78;;;26.36;66.02
56671;BME280;42545;50.054;8.306;2023-06-22T08:51:23;99830.53;;;26.41;66.04
56671;BME280;42545;50.054;8.306;2023-06-22T08:53:50;99835.88;;;26.42;65.89
56671;BME280;42545;50.054;8.306;2023-06-22T08:56:17;99826.81;;;26.43;65.82
56671;BME280;42545;50.054;8.306;2023-06-22T08:58:44;99835.63;;;26.47;65.29
56671;BME280;42545;50.054;8.306;2023-06-22T09:01:11;99834.34;;;26.54;65.08
56671;BME280;42545;50.054;8.306;2023-06-22T09:03:37;99837.84;;;26.56;65.25
56671;BME280;42545;50.054;8.306;2023-06-22T09:06:06;99840.31;;;26.61;65.51
56671;BME280;42545;50.054;8.306;2023-06-22T09:08:35;99835.69;;;26.63;64.93
56671;BME280;42545;50.054;8.306;2023-06-22T09:11:02;99832.06;;;26.64;65.12
56671;BME280;42545;50.054;8.306;2023-06-22T09:13:30;99822.88;;;26.66;64.79
56671;BME280;42545;50.054;8.306;2023-06-22T09:15:58;99821.44;;;26.77;65.07
56671;BME280;42545;50.054;8.306;2023-06-22T09:18:25;99819.16;;;26.85;64.84
56671;BME280;42545;50.054;8.306;2023-06-22T09:20:52;99817.72;;;26.95;64.37
56671;BME280;42545;50.054;8.306;2023-06-22T09:23:19;99814.66;;;27.01;64.11
56671;BME280;42545;50.054;8.306;2023-06-22T09:25:46;99813.34;;;27.09;63.40
56671;BME280;42545;50.054;8.306;2023-06-22T09:28:13;99809.88;;;27.07;63.79
56671;BME280;42545;50.054;8.306;2023-06-22T09:30:40;99797.03;;;27.10;63.63
56671;BME280;42545;50.054;8.306;2023-06-22T09:33:08;99796.50;;;27.19;63.56
56671;BME280;42545;50.054;8.306;2023-06-22T09:35:38;99797.13;;;27.24;62.94
56671;BME280;42545;50.054;8.306;2023-06-22T09:38:04;99794.38;;;27.26;62.15
56671;BME280;42545;50.054;8.306;2023-06-22T09:40:31;99800.56;;;27.28;62.46
56671;BME280;42545;50.054;8.306;2023-06-22T09:43:00;99797.41;;;27.36;62.86
56671;BME280;42545;50.054;8.306;2023-06-22T09:45:27;99795.22;;;27.42;62.72
56671;BME280;42545;50.054;8.306;2023-06-22T09:47:53;99792.94;;;27.51;62.91
56671;BME280;42545;50.054;8.306;2023-06-22T09:50:23;99789.81;;;27.58;62.50
56671;BME280;42545;50.054;8.306;2023-06-22T09:52:50;99774.81;;;27.67;62.59
56671;BME280;42545;50.054;8.306;2023-06-22T09:55:20;99770.78;;;27.74;62.16
56671;BME280;42545;50.054;8.306;2023-06-22T09:57:46;99762.25;;;27.66;61.23
56671;BME280;42545;50.054;8.306;2023-06-22T10:00:14;99771.53;;;27.62;62.11
56671;BME280;42545;50.054;8.306;2023-06-22T10:02:44;99775.56;;;27.55;61.76
56671;BME280;42545;50.054;8.306;2023-06-22T10:05:13;99762.63;;;27.60;62.30
56671;BME280;42545;50.054;8.306;2023-06-22T10:07:41;99760.22;;;27.70;61.50
56671;BME280;42545;50.054;8.306;2023-06-22T10:10:09;99740.41;;;27.84;61.54
56671;BME280;42545;50.054;8.306;2023-06-22T10:12:36;99753.16;;;27.97;60.92
56671;BME280;42545;50.054;8.306;2023-06-22T10:15:03;99747.09;;;28.08;59.23
56671;BME280;42545;50.054;8.306;2023-06-22T10:17:30;99743.03;;;28.15;58.56
56671;BME280;42545;50.054;8.306;2023-06-22T10:19:56;99745.44;;;28.20;58.25
56671;BME280;42545;50.054;8.306;2023-06-22T10:22:23;99740.53;;;28.27;57.70
56671;BME280;42545;50.054;8.306;2023-06-22T10:24:53;99740.94;;;28.35;57.78
56671;BME280;42545;50.054;8.306;2023-06-22T10:27:20;99726.13;;;28.41;57.35
56671;BME280;42545;50.054;8.306;2023-06-22T10:29:47;99722.72;;;28.51;56.36
56671;BME280;42545;50.054;8.306;2023-06-22T10:32:13;99707.59;;;28.62;56.07
56671;BME280;42545;50.054;8.306;2023-06-22T10:34:42;99700.63;;;28.72;55.84
56671;BME280;42545;50.054;8.306;2023-06-22T10:37:08;99692.16;;;28.76;56.25
56671;BME280;42545;50.054;8.306;2023-06-22T10:39:35;99691.88;;;28.81;56.24
56671;BME280;42545;50.054;8.306;2023-06-22T10:42:03;99682.28;;;28.90;56.15
56671;BME280;42545;50.054;8.306;2023-06-22T10:44:30;99667.50;;;28.94;55.26
56671;BME280;42545;50.054;8.306;2023-06-22T10:46:56;99672.31;;;29.03;55.62
56671;BME280;42545;50.054;8.306;2023-06-22T10:49:23;99658.13;;;29.12;55.27
56671;BME280;42545;50.054;8.306;2023-06-22T10:51:50;99656.47;;;29.24;54.59
56671;BME280;42545;50.054;8.306;2023-06-22T10:54:16;99655.28;;;29.28;53.73
56671;BME280;42545;50.054;8.306;2023-06-22T10:56:44;99646.91;;;29.31;53.20
56671;BME280;42545;50.054;8.306;2023-06-22T10:59:12;99640.31;;;29.36;52.84
56671;BME280;42545;50.054;8.306;2023-06-22T11:01:39;99647.72;;;29.46;52.61
56671;BME280;42545;50.054;8.306;2023-06-22T11:04:06;99643.47;;;29.55;51.72
56671;BME280;42545;50.054;8.306;2023-06-22T11:06:32;99649.38;;;29.62;51.67
56671;BME280;42545;50.054;8.306;2023-06-22T11:08:59;99638.97;;;29.68;50.57
56671;BME280;42545;50.054;8.306;2023-06-22T11:11:26;99640.47;;;29.73;50.51
56671;BME280;42545;50.054;8.306;2023-06-22T11:13:53;99642.69;;;29.80;50.71
56671;BME280;42545;50.054;8.306;2023-06-22T11:16:21;99640.06;;;29.92;50.28
56671;BME280;42545;50.054;8.306;2023-06-22T11:18:48;99627.69;;;30.00;49.99
56671;BME280;42545;50.054;8.306;2023-06-22T11:21:14;99613.53;;;30.08;49.57
56671;BME280;42545;50.054;8.306;2023-06-22T11:23:41;99623.97;;;30.14;49.27
56671;BME280;42545;50.054;8.306;2023-06-22T11:26:08;99607.94;;;30.22;49.25
56671;BME280;42545;50.054;8.306;2023-06-22T11:28:35;99612.84;;;30.30;49.05
56671;BME280;42545;50.054;8.306;2023-06-22T11:31:01;99621.16;;;30.41;48.57
56671;BME280;42545;50.054;8.306;2023-06-22T11:33:30;99609.91;;;30.46;47.66
56671;BME280;42545;50.054;8.306;2023-06-22T11:35:56;99620.34;;;30.52;47.93
56671;BME280;42545;50.054;8.306;2023-06-22T11:38:23;99609.22;;;30.55;47.59
56671;BME280;42545;50.054;8.306;2023-06-22T11:40:50;99612.69;;;30.57;47.33
56671;BME280;42545;50.054;8.306;2023-06-22T11:43:16;99613.34;;;30.61;47.50
56671;BME280;42545;50.054;8.306;2023-06-22T11:45:44;99615.63;;;30.67;47.73
56671;BME280;42545;50.054;8.306;2023-06-22T11:48:11;99613.44;;;30.72;47.71
56671;BME280;42545;50.054;8.306;2023-06-22T11:50:39;99610.34;;;30.77;47.72
56671;BME280;42545;50.054;8.306;2023-06-22T11:53:06;99602.72;;;30.82;47.40
56671;BME280;42545;50.054;8.306;2023-06-22T11:55:33;99597.78;;;30.87;47.08
56671;BME280;42545;50.054;8.306;2023-06-22T11:58:01;99593.50;;;30.96;47.07
56671;BME280;42545;50.054;8.306;2023-06-22T12:00:30;99595.69;;;31.03;46.70
56671;BME280;42545;50.054;8.306;2023-06-22T12:02:57;99590.84;;;31.07;46.40
56671;BME280;42545;50.054;8.306;2023-06-22T12:05:24;99588.25;;;31.06;46.46
56671;BME280;42545;50.054;8.306;2023-06-22T12:07:54;99586.28;;;31.08;46.69
56671;BME280;42545;50.054;8.306;2023-06-22T12:10:22;99586.38;;;31.06;46.66
56671;BME280;42545;50.054;8.306;2023-06-22T12:12:50;99586.50;;;31.04;46.77
56671;BME280;42545;50.054;8.306;2023-06-22T12:15:17;99585.63;;;31.04;46.93
56671;BME280;42545;50.054;8.306;2023-06-22T12:17:44;99596.16;;;31.09;46.82
56671;BME280;42545;50.054;8.306;2023-06-22T12:20:11;99601.88;;;31.06;46.76
56671;BME280;42545;50.054;8.306;2023-06-22T12:22:38;99589.19;;;30.93;47.07
56671;BME280;42545;50.054;8.306;2023-06-22T12:25:07;99583.06;;;30.90;47.21
56671;BME280;42545;50.054;8.306;2023-06-22T12:27:34;99575.09;;;30.86;47.64
56671;BME280;42545;50.054;8.306;2023-06-22T12:30:01;99582.88;;;30.93;47.75
56671;BME280;42545;50.054;8.306;2023-06-22T12:32:28;99585.22;;;30.97;47.61
56671;BME280;42545;50.054;8.306;2023-06-22T12:34:55;99571.38;;;31.00;47.31
56671;BME280;42545;50.054;8.306;2023-06-22T12:37:22;99572.13;;;31.02;47.18
56671;BME280;42545;50.054;8.306;2023-06-22T12:39:49;99576.50;;;31.05;47.27
56671;BME280;42545;50.054;8.306;2023-06-22T12:42:17;99567.31;;;31.06;47.28
56671;BME280;42545;50.054;8.306;2023-06-22T12:44:44;99562.88;;;31.05;47.57
56671;BME280;42545;50.054;8.306;2023-06-22T12:47:10;99566.16;;;30.97;47.70
56671;BME280;42545;50.054;8.306;2023-06-22T12:49:38;99561.19;;;30.91;48.01
56671;BME280;42545;50.054;8.306;2023-06-22T12:52:09;99546.03;;;30.87;47.73
56671;BME280;42545;50.054;8.306;2023-06-22T12:54:36;99548.50;;;30.90;47.67
56671;BME280;42545;50.054;8.306;2023-06-22T12:57:03;99554.97;;;30.89;48.17
56671;BME280;42545;50.054;8.306;2023-06-22T12:59:31;99551.91;;;30.94;48.40